sensor_id;sensor_type;location;lat;lon;timestamp;P1;durP1;ratioP1;P2;durP2;ratioP2
7255;SDS011;3669;49.200;9.242;2023-05-07T00:00:36;3.35;;;2.80;;
7255;SDS011;3669;49.200;9.242;2023-05-07T00:03:03;3.85;;;2.95;;
7255;SDS011;3669;49.200;9.242;2023-05-07T00:05:31;2.80;;;2.60;;
7255;SDS011;3669;49.200;9.242;2023-05-07T00:07:58;3.65;;;3.03;;
7255;SDS011;3669;49.200;9.242;2023-05-07T00:10:25;2.80;;;2.60;;
7255;SDS011;3669;49.200;9.242;2023-05-07T00:12:52;3.38;;;3.08;;
7255;SDS011;3669;49.200;9.242;2023-05-07T00:15:20;4.13;;;2.60;;
7255;SDS011;3669;49.200;9.242;2023-05-07T00:17:47;3.10;;;2.80;;
7255;SDS011;3669;49.200;9.242;2023-05-07T00:20:14;3.00;;;2.60;;
7255;SDS011;3669;49.200;9.242;2023-05-07T00:22:41;2.75;;;2.55;;
7255;SDS011;3669;49.200;9.242;2023-05-07T00:25:08;3.00;;;2.75;;
7255;SDS011;3669;49.200;9.242;2023-05-07T00:27:35;12.57;;;11.85;;
7255;SDS011;3669;49.200;9.242;2023-05-07T00:30:02;3.15;;;2.60;;
7255;SDS011;3669;49.200;9.242;2023-05-07T00:32:30;3.15;;;2.88;;
7255;SDS011;3669;49.200;9.242;2023-05-07T00:34:57;2.92;;;2.65;;
7255;SDS011;3669;49.200;9.242;2023-05-07T00:37:24;2.85;;;2.45;;
7255;SDS011;3669;49.200;9.242;2023-05-07T00:39:51;4.45;;;2.67;;
7255;SDS011;3669;49.200;9.242;2023-05-07T00:42:18;2.83;;;2.50;;
7255;SDS011;3669;49.200;9.242;2023-05-07T00:44:45;3.47;;;2.75;;
7255;SDS011;3669;49.200;9.242;2023-05-07T00:47:12;3.00;;;2.38;;
7255;SDS011;3669;49.200;9.242;2023-05-07T00:49:43;2.92;;;2.40;;
7255;SDS011;3669;49.200;9.242;2023-05-07T00:52:11;2.63;;;2.42;;
7255;SDS011;3669;49.200;9.242;2023-05-07T00:54:40;2.90;;;2.33;;
7255;SDS011;3669;49.200;9.242;2023-05-07T00:57:07;2.70;;;2.50;;
7255;SDS011;3669;49.200;9.242;2023-05-07T00:59:36;2.60;;;2.40;;
7255;SDS011;3669;49.200;9.242;2023-05-07T01:02:03;3.33;;;2.75;;
7255;SDS011;3669;49.200;9.242;2023-05-07T01:04:30;7.03;;;6.50;;
7255;SDS011;3669;49.200;9.242;2023-05-07T01:06:57;20.58;;;19.58;;
7255;SDS011;3669;49.200;9.242;2023-05-07T01:09:25;24.20;;;23.05;;
7255;SDS011;3669;49.200;9.242;2023-05-07T01:11:52;23.25;;;22.00;;
7255;SDS011;3669;49.200;9.242;2023-05-07T01:14:20;16.45;;;15.60;;
7255;SDS011;3669;49.200;9.242;2023-05-07T01:16:47;14.10;;;13.20;;
7255;SDS011;3669;49.200;9.242;2023-05-07T01:19:17;15.55;;;14.73;;
7255;SDS011;3669;49.200;9.242;2023-05-07T01:21:47;11.18;;;10.52;;
7255;SDS011;3669;49.200;9.242;2023-05-07T01:24:15;3.38;;;3.17;;
7255;SDS011;3669;49.200;9.242;2023-05-07T01:26:42;3.50;;;3.22;;
7255;SDS011;3669;49.200;9.242;2023-05-07T01:29:10;3.30;;;3.00;;
7255;SDS011;3669;49.200;9.242;2023-05-07T01:31:37;3.65;;;3.35;;
7255;SDS011;3669;49.200;9.242;2023-05-07T01:34:05;3.35;;;3.05;;
7255;SDS011;3669;49.200;9.242;2023-05-07T01:36:34;3.17;;;2.97;;
7255;SDS011;3669;49.200;9.242;2023-05-07T01:39:01;3.33;;;3.03;;
7255;SDS011;3669;49.200;9.242;2023-05-07T01:41:28;2.90;;;2.70;;
7255;SDS011;3669;49.200;9.242;2023-05-07T01:43:55;3.67;;;3.08;;
7255;SDS011;3669;49.200;9.242;2023-05-07T01:46:23;3.10;;;2.80;;
7255;SDS011;3669;49.200;9.242;2023-05-07T01:48:51;3.13;;;2.60;;
7255;SDS011;3669;49.200;9.242;2023-05-07T01:51:18;2.72;;;2.22;;
7255;SDS011;3669;49.200;9.242;2023-05-07T01:53:47;3.08;;;2.80;;
7255;SDS011;3669;49.200;9.242;2023-05-07T01:56:17;2.83;;;2.47;;
7255;SDS011;3669;49.200;9.242;2023-05-07T01:58:47;2.92;;;2.53;;
7255;SDS011;3669;49.200;9.242;2023-05-07T02:01:14;2.33;;;2.20;;
7255;SDS011;3669;49.200;9.242;2023-05-07T02:03:41;2.75;;;2.55;;
7255;SDS011;3669;49.200;9.242;2023-05-07T02:06:09;4.05;;;2.22;;
7255;SDS011;3669;49.200;9.242;2023-05-07T02:08:36;2.92;;;2.67;;
7255;SDS011;3669;49.200;9.242;2023-05-07T02:11:03;3.72;;;2.28;;
7255;SDS011;3669;49.200;9.242;2023-05-07T02:13:31;2.42;;;2.13;;
7255;SDS011;3669;49.200;9.242;2023-05-07T02:15:58;2.63;;;2.20;;
7255;SDS011;3669;49.200;9.242;2023-05-07T02:18:25;2.60;;;2.40;;
7255;SDS011;3669;49.200;9.242;2023-05-07T02:20:52;2.60;;;2.40;;
7255;SDS011;3669;49.200;9.242;2023-05-07T02:23:20;2.53;;;2.33;;
7255;SDS011;3669;49.200;9.242;2023-05-07T02:25:47;2.70;;;2.50;;
7255;SDS011;3669;49.200;9.242;2023-05-07T02:28:14;2.50;;;2.30;;
7255;SDS011;3669;49.200;9.242;2023-05-07T02:30:41;2.80;;;2.20;;
7255;SDS011;3669;49.200;9.242;2023-05-07T02:33:08;2.60;;;2.40;;
7255;SDS011;3669;49.200;9.242;2023-05-07T02:35:35;3.15;;;2.45;;
7255;SDS011;3669;49.200;9.242;2023-05-07T02:38:02;2.60;;;2.40;;
7255;SDS011;3669;49.200;9.242;2023-05-07T02:40:29;2.70;;;2.50;;
7255;SDS011;3669;49.200;9.242;2023-05-07T02:42:59;2.53;;;2.33;;
7255;SDS011;3669;49.200;9.242;2023-05-07T02:45:26;2.83;;;2.60;;
7255;SDS011;3669;49.200;9.242;2023-05-07T02:47:53;2.55;;;2.35;;
7255;SDS011;3669;49.200;9.242;2023-05-07T02:50:20;2.40;;;2.20;;
7255;SDS011;3669;49.200;9.242;2023-05-07T02:52:48;2.20;;;2.00;;
7255;SDS011;3669;49.200;9.242;2023-05-07T02:55:15;2.28;;;2.08;;
7255;SDS011;3669;49.200;9.242;2023-05-07T02:57:42;2.33;;;2.13;;
7255;SDS011;3669;49.200;9.242;2023-05-07T03:00:17;2.50;;;2.30;;
7255;SDS011;3669;49.200;9.242;2023-05-07T03:02:45;2.72;;;2.40;;
7255;SDS011;3669;49.200;9.242;2023-05-07T03:05:12;2.35;;;2.25;;
7255;SDS011;3669;49.200;9.242;2023-05-07T03:07:40;2.60;;;2.40;;
7255;SDS011;3669;49.200;9.242;2023-05-07T03:10:11;2.42;;;2.22;;
7255;SDS011;3669;49.200;9.242;2023-05-07T03:12:38;2.47;;;2.28;;
7255;SDS011;3669;49.200;9.242;2023-05-07T03:15:05;2.45;;;2.25;;
7255;SDS011;3669;49.200;9.242;2023-05-07T03:17:33;2.53;;;2.33;;
7255;SDS011;3669;49.200;9.242;2023-05-07T03:20:00;2.65;;;2.45;;
7255;SDS011;3669;49.200;9.242;2023-05-07T03:22:27;2.40;;;2.20;;
7255;SDS011;3669;49.200;9.242;2023-05-07T03:24:54;2.50;;;2.30;;
7255;SDS011;3669;49.200;9.242;2023-05-07T03:27:21;2.38;;;2.17;;
7255;SDS011;3669;49.200;9.242;2023-05-07T03:29:48;2.20;;;2.00;;
7255;SDS011;3669;49.200;9.242;2023-05-07T03:32:15;11.70;;;11.05;;
7255;SDS011;3669;49.200;9.242;2023-05-07T03:34:42;17.65;;;16.88;;
7255;SDS011;3669;49.200;9.242;2023-05-07T03:37:09;22.02;;;20.98;;
7255;SDS011;3669;49.200;9.242;2023-05-07T03:39:36;22.38;;;21.20;;
7255;SDS011;3669;49.200;9.242;2023-05-07T03:42:03;18.05;;;17.15;;
7255;SDS011;3669;49.200;9.242;2023-05-07T03:44:30;26.50;;;25.17;;
7255;SDS011;3669;49.200;9.242;2023-05-07T03:46:57;12.27;;;11.70;;
7255;SDS011;3669;49.200;9.242;2023-05-07T03:49:23;4.60;;;4.35;;
7255;SDS011;3669;49.200;9.242;2023-05-07T03:51:50;2.38;;;2.17;;
7255;SDS011;3669;49.200;9.242;2023-05-07T03:54:17;2.33;;;2.13;;
7255;SDS011;3669;49.200;9.242;2023-05-07T03:56:44;2.47;;;2.28;;
7255;SDS011;3669;49.200;9.242;2023-05-07T03:59:12;2.63;;;2.35;;
7255;SDS011;3669;49.200;9.242;2023-05-07T04:01:39;2.30;;;2.10;;
7255;SDS011;3669;49.200;9.242;2023-05-07T04:04:06;2.42;;;2.20;;
7255;SDS011;3669;49.200;9.242;2023-05-07T04:06:33;2.60;;;2.40;;
7255;SDS011;3669;49.200;9.242;2023-05-07T04:09:00;2.30;;;2.10;;
7255;SDS011;3669;49.200;9.242;2023-05-07T04:11:27;2.42;;;2.10;;
7255;SDS011;3669;49.200;9.242;2023-05-07T04:13:54;2.10;;;2.00;;
7255;SDS011;3669;49.200;9.242;2023-05-07T04:16:21;2.35;;;2.10;;
7255;SDS011;3669;49.200;9.242;2023-05-07T04:18:48;2.63;;;2.40;;
7255;SDS011;3669;49.200;9.242;2023-05-07T04:21:16;2.28;;;2.15;;
7255;SDS011;3669;49.200;9.242;2023-05-07T04:23:43;2.72;;;2.50;;
7255;SDS011;3669;49.200;9.242;2023-05-07T04:26:10;2.30;;;2.20;;
7255;SDS011;3669;49.200;9.242;2023-05-07T04:28:37;3.05;;;2.20;;
7255;SDS011;3669;49.200;9.242;2023-05-07T04:31:05;2.22;;;2.00;;
7255;SDS011;3669;49.200;9.242;2023-05-07T04:33:32;2.50;;;2.30;;
7255;SDS011;3669;49.200;9.242;2023-05-07T04:36:03;2.47;;;2.30;;
7255;SDS011;3669;49.200;9.242;2023-05-07T04:38:30;2.20;;;2.00;;
7255;SDS011;3669;49.200;9.242;2023-05-07T04:41:02;2.53;;;2.33;;
7255;SDS011;3669;49.200;9.242;2023-05-07T04:44:25;21.08;;;20.17;;
7255;SDS011;3669;49.200;9.242;2023-05-07T04:46:52;11.13;;;10.65;;
7255;SDS011;3669;49.200;9.242;2023-05-07T04:49:18;11.98;;;11.43;;
7255;SDS011;3669;49.200;9.242;2023-05-07T04:51:45;8.57;;;8.07;;
7255;SDS011;3669;49.200;9.242;2023-05-07T04:54:12;2.50;;;2.30;;
7255;SDS011;3669;49.200;9.242;2023-05-07T04:56:39;2.83;;;2.22;;
7255;SDS011;3669;49.200;9.242;2023-05-07T04:59:07;2.47;;;2.28;;
7255;SDS011;3669;49.200;9.242;2023-05-07T05:01:34;2.90;;;2.20;;
7255;SDS011;3669;49.200;9.242;2023-05-07T05:04:01;2.67;;;2.45;;
7255;SDS011;3669;49.200;9.242;2023-05-07T05:06:28;2.30;;;2.20;;
7255;SDS011;3669;49.200;9.242;2023-05-07T05:08:56;2.35;;;2.15;;
7255;SDS011;3669;49.200;9.242;2023-05-07T05:11:23;2.15;;;2.05;;
7255;SDS011;3669;49.200;9.242;2023-05-07T05:13:50;2.17;;;2.08;;
7255;SDS011;3669;49.200;9.242;2023-05-07T05:16:17;2.33;;;2.13;;
7255;SDS011;3669;49.200;9.242;2023-05-07T05:18:44;2.10;;;2.00;;
7255;SDS011;3669;49.200;9.242;2023-05-07T05:21:11;3.72;;;2.33;;
7255;SDS011;3669;49.200;9.242;2023-05-07T05:23:38;2.95;;;2.20;;
7255;SDS011;3669;49.200;9.242;2023-05-07T05:26:05;4.38;;;2.33;;
7255;SDS011;3669;49.200;9.242;2023-05-07T05:28:32;2.38;;;2.17;;
7255;SDS011;3669;49.200;9.242;2023-05-07T05:30:59;2.40;;;2.20;;
7255;SDS011;3669;49.200;9.242;2023-05-07T05:33:26;2.45;;;2.25;;
7255;SDS011;3669;49.200;9.242;2023-05-07T05:35:53;2.75;;;2.10;;
7255;SDS011;3669;49.200;9.242;2023-05-07T05:38:20;2.40;;;2.20;;
7255;SDS011;3669;49.200;9.242;2023-05-07T05:40:48;3.05;;;2.30;;
7255;SDS011;3669;49.200;9.242;2023-05-07T05:43:15;2.30;;;2.10;;
7255;SDS011;3669;49.200;9.242;2023-05-07T05:45:42;2.72;;;2.53;;
7255;SDS011;3669;49.200;9.242;2023-05-07T05:48:09;2.30;;;2.10;;
7255;SDS011;3669;49.200;9.242;2023-05-07T05:50:36;4.18;;;2.53;;
7255;SDS011;3669;49.200;9.242;2023-05-07T05:53:03;2.40;;;2.20;;
7255;SDS011;3669;49.200;9.242;2023-05-07T05:55:30;3.05;;;2.30;;
7255;SDS011;3669;49.200;9.242;2023-05-07T05:57:59;3.15;;;2.40;;
7255;SDS011;3669;49.200;9.242;2023-05-07T06:00:26;3.25;;;2.38;;
7255;SDS011;3669;49.200;9.242;2023-05-07T06:02:53;2.65;;;2.45;;
7255;SDS011;3669;49.200;9.242;2023-05-07T06:05:21;2.53;;;2.33;;
7255;SDS011;3669;49.200;9.242;2023-05-07T06:07:48;2.58;;;2.38;;
7255;SDS011;3669;49.200;9.242;2023-05-07T06:10:15;2.78;;;2.40;;
7255;SDS011;3669;49.200;9.242;2023-05-07T06:12:42;3.00;;;2.67;;
7255;SDS011;3669;49.200;9.242;2023-05-07T06:15:09;2.80;;;2.58;;
7255;SDS011;3669;49.200;9.242;2023-05-07T06:17:36;2.92;;;2.72;;
7255;SDS011;3669;49.200;9.242;2023-05-07T06:20:03;2.63;;;2.42;;
7255;SDS011;3669;49.200;9.242;2023-05-07T06:22:30;2.50;;;2.30;;
7255;SDS011;3669;49.200;9.242;2023-05-07T06:24:57;3.50;;;2.35;;
7255;SDS011;3669;49.200;9.242;2023-05-07T06:27:24;2.70;;;2.50;;
7255;SDS011;3669;49.200;9.242;2023-05-07T06:29:51;2.88;;;2.67;;
7255;SDS011;3669;49.200;9.242;2023-05-07T06:32:18;3.20;;;2.90;;
7255;SDS011;3669;49.200;9.242;2023-05-07T06:34:45;2.85;;;2.63;;
7255;SDS011;3669;49.200;9.242;2023-05-07T06:37:12;2.90;;;2.70;;
7255;SDS011;3669;49.200;9.242;2023-05-07T06:39:39;2.83;;;2.58;;
7255;SDS011;3669;49.200;9.242;2023-05-07T06:42:06;11.88;;;11.13;;
7255;SDS011;3669;49.200;9.242;2023-05-07T06:44:33;2.50;;;2.30;;
7255;SDS011;3669;49.200;9.242;2023-05-07T06:47:00;2.58;;;2.38;;
7255;SDS011;3669;49.200;9.242;2023-05-07T06:49:27;8.27;;;7.70;;
7255;SDS011;3669;49.200;9.242;2023-05-07T06:51:53;17.20;;;16.38;;
7255;SDS011;3669;49.200;9.242;2023-05-07T06:54:21;22.52;;;21.52;;
7255;SDS011;3669;49.200;9.242;2023-05-07T06:56:48;11.55;;;11.00;;
7255;SDS011;3669;49.200;9.242;2023-05-07T06:59:15;27.02;;;25.75;;
7255;SDS011;3669;49.200;9.242;2023-05-07T07:01:42;25.55;;;24.25;;
7255;SDS011;3669;49.200;9.242;2023-05-07T07:04:10;9.52;;;8.95;;
7255;SDS011;3669;49.200;9.242;2023-05-07T07:06:36;6.45;;;6.03;;
7255;SDS011;3669;49.200;9.242;2023-05-07T07:09:03;3.03;;;2.80;;
7255;SDS011;3669;49.200;9.242;2023-05-07T07:11:30;3.47;;;2.80;;
7255;SDS011;3669;49.200;9.242;2023-05-07T07:13:58;3.00;;;2.70;;
7255;SDS011;3669;49.200;9.242;2023-05-07T07:16:25;4.07;;;2.63;;
7255;SDS011;3669;49.200;9.242;2023-05-07T07:18:52;2.92;;;2.63;;
7255;SDS011;3669;49.200;9.242;2023-05-07T07:21:19;3.83;;;2.50;;
7255;SDS011;3669;49.200;9.242;2023-05-07T07:23:46;3.65;;;2.55;;
7255;SDS011;3669;49.200;9.242;2023-05-07T07:26:13;3.38;;;2.45;;
7255;SDS011;3669;49.200;9.242;2023-05-07T07:28:44;2.60;;;2.40;;
7255;SDS011;3669;49.200;9.242;2023-05-07T07:31:12;3.80;;;2.60;;
7255;SDS011;3669;49.200;9.242;2023-05-07T07:33:39;3.00;;;2.58;;
7255;SDS011;3669;49.200;9.242;2023-05-07T07:36:06;2.85;;;2.40;;
7255;SDS011;3669;49.200;9.242;2023-05-07T07:38:33;3.35;;;2.22;;
7255;SDS011;3669;49.200;9.242;2023-05-07T07:41:01;2.65;;;2.45;;
7255;SDS011;3669;49.200;9.242;2023-05-07T07:43:28;2.55;;;2.20;;
7255;SDS011;3669;49.200;9.242;2023-05-07T07:45:55;2.70;;;2.50;;
7255;SDS011;3669;49.200;9.242;2023-05-07T07:48:22;2.60;;;2.40;;
7255;SDS011;3669;49.200;9.242;2023-05-07T07:50:49;3.65;;;2.35;;
7255;SDS011;3669;49.200;9.242;2023-05-07T07:53:17;3.25;;;2.53;;
7255;SDS011;3669;49.200;9.242;2023-05-07T07:55:44;2.70;;;2.50;;
7255;SDS011;3669;49.200;9.242;2023-05-07T07:58:11;2.60;;;2.38;;
7255;SDS011;3669;49.200;9.242;2023-05-07T08:00:38;2.60;;;2.40;;
7255;SDS011;3669;49.200;9.242;2023-05-07T08:03:05;3.33;;;2.38;;
7255;SDS011;3669;49.200;9.242;2023-05-07T08:05:32;2.70;;;2.50;;
7255;SDS011;3669;49.200;9.242;2023-05-07T08:08:00;2.95;;;2.75;;
7255;SDS011;3669;49.200;9.242;2023-05-07T08:10:27;3.35;;;2.22;;
7255;SDS011;3669;49.200;9.242;2023-05-07T08:12:54;2.53;;;2.33;;
7255;SDS011;3669;49.200;9.242;2023-05-07T08:15:21;2.83;;;2.60;;
7255;SDS011;3669;49.200;9.242;2023-05-07T08:17:48;2.70;;;2.50;;
7255;SDS011;3669;49.200;9.242;2023-05-07T08:20:15;2.72;;;2.53;;
7255;SDS011;3669;49.200;9.242;2023-05-07T08:22:42;3.15;;;2.72;;
7255;SDS011;3669;49.200;9.242;2023-05-07T08:25:09;2.60;;;2.40;;
7255;SDS011;3669;49.200;9.242;2023-05-07T08:27:36;4.63;;;2.70;;
7255;SDS011;3669;49.200;9.242;2023-05-07T08:30:04;3.05;;;2.50;;
7255;SDS011;3669;49.200;9.242;2023-05-07T08:32:37;2.90;;;2.70;;
7255;SDS011;3669;49.200;9.242;2023-05-07T08:35:04;2.70;;;2.50;;
7255;SDS011;3669;49.200;9.242;2023-05-07T08:37:31;2.75;;;2.55;;
7255;SDS011;3669;49.200;9.242;2023-05-07T08:39:58;2.85;;;2.65;;
7255;SDS011;3669;49.200;9.242;2023-05-07T08:42:25;3.75;;;2.50;;
7255;SDS011;3669;49.200;9.242;2023-05-07T08:44:54;2.90;;;2.70;;
7255;SDS011;3669;49.200;9.242;2023-05-07T08:47:26;2.50;;;2.30;;
7255;SDS011;3669;49.200;9.242;2023-05-07T08:49:56;3.45;;;2.80;;
7255;SDS011;3669;49.200;9.242;2023-05-07T08:52:23;2.90;;;2.20;;
7255;SDS011;3669;49.200;9.242;2023-05-07T08:54:51;2.95;;;2.75;;
7255;SDS011;3669;49.200;9.242;2023-05-07T08:57:18;3.08;;;2.78;;
7255;SDS011;3669;49.200;9.242;2023-05-07T08:59:46;2.75;;;2.35;;
7255;SDS011;3669;49.200;9.242;2023-05-07T09:02:13;2.63;;;2.40;;
7255;SDS011;3669;49.200;9.242;2023-05-07T09:04:41;2.58;;;2.30;;
7255;SDS011;3669;49.200;9.242;2023-05-07T09:07:08;2.47;;;2.28;;
7255;SDS011;3669;49.200;9.242;2023-05-07T09:09:35;9.80;;;9.27;;
7255;SDS011;3669;49.200;9.242;2023-05-07T09:12:03;11.00;;;10.52;;
7255;SDS011;3669;49.200;9.242;2023-05-07T09:14:30;9.55;;;9.02;;
7255;SDS011;3669;49.200;9.242;2023-05-07T09:16:57;14.80;;;14.07;;
7255;SDS011;3669;49.200;9.242;2023-05-07T09:19:24;12.68;;;12.02;;
7255;SDS011;3669;49.200;9.242;2023-05-07T09:22:02;2.72;;;2.38;;
7255;SDS011;3669;49.200;9.242;2023-05-07T09:24:29;2.40;;;2.20;;
7255;SDS011;3669;49.200;9.242;2023-05-07T09:27:00;2.50;;;2.30;;
7255;SDS011;3669;49.200;9.242;2023-05-07T09:29:28;2.47;;;2.28;;
7255;SDS011;3669;49.200;9.242;2023-05-07T09:31:56;2.33;;;2.13;;
7255;SDS011;3669;49.200;9.242;2023-05-07T09:34:23;2.53;;;2.33;;
7255;SDS011;3669;49.200;9.242;2023-05-07T09:36:50;2.67;;;2.42;;
7255;SDS011;3669;49.200;9.242;2023-05-07T09:39:20;2.50;;;2.30;;
7255;SDS011;3669;49.200;9.242;2023-05-07T09:41:47;2.17;;;2.08;;
7255;SDS011;3669;49.200;9.242;2023-05-07T09:44:16;2.50;;;2.30;;
7255;SDS011;3669;49.200;9.242;2023-05-07T09:46:44;2.42;;;2.22;;
7255;SDS011;3669;49.200;9.242;2023-05-07T09:49:16;3.10;;;2.30;;
7255;SDS011;3669;49.200;9.242;2023-05-07T09:51:47;3.05;;;2.28;;
7255;SDS011;3669;49.200;9.242;2023-05-07T09:54:15;2.60;;;2.40;;
7255;SDS011;3669;49.200;9.242;2023-05-07T09:56:43;2.30;;;2.10;;
7255;SDS011;3669;49.200;9.242;2023-05-07T09:59:14;2.50;;;2.30;;
7255;SDS011;3669;49.200;9.242;2023-05-07T10:01:42;2.30;;;2.10;;
7255;SDS011;3669;49.200;9.242;2023-05-07T10:04:09;2.50;;;2.30;;
7255;SDS011;3669;49.200;9.242;2023-05-07T10:06:37;2.20;;;2.00;;
7255;SDS011;3669;49.200;9.242;2023-05-07T10:09:04;2.20;;;2.00;;
7255;SDS011;3669;49.200;9.242;2023-05-07T10:11:32;2.90;;;2.08;;
7255;SDS011;3669;49.200;9.242;2023-05-07T10:14:00;2.85;;;2.33;;
7255;SDS011;3669;49.200;9.242;2023-05-07T10:16:29;2.33;;;1.83;;
7255;SDS011;3669;49.200;9.242;2023-05-07T10:18:58;2.65;;;2.22;;
7255;SDS011;3669;49.200;9.242;2023-05-07T10:21:26;2.20;;;2.00;;
7255;SDS011;3669;49.200;9.242;2023-05-07T10:24:04;2.30;;;2.10;;
7255;SDS011;3669;49.200;9.242;2023-05-07T10:26:34;2.05;;;1.92;;
7255;SDS011;3669;49.200;9.242;2023-05-07T10:29:04;3.38;;;2.30;;
7255;SDS011;3669;49.200;9.242;2023-05-07T10:31:43;2.28;;;2.10;;
7255;SDS011;3669;49.200;9.242;2023-05-07T10:34:15;1.88;;;1.77;;
7255;SDS011;3669;49.200;9.242;2023-05-07T10:36:43;2.75;;;2.38;;
7255;SDS011;3669;49.200;9.242;2023-05-07T10:39:11;2.33;;;2.13;;
7255;SDS011;3669;49.200;9.242;2023-05-07T10:41:38;2.50;;;2.15;;
7255;SDS011;3669;49.200;9.242;2023-05-07T10:44:06;2.10;;;1.90;;
7255;SDS011;3669;49.200;9.242;2023-05-07T10:46:33;2.17;;;1.98;;
7255;SDS011;3669;49.200;9.242;2023-05-07T10:51:36;2.25;;;2.00;;
7255;SDS011;3669;49.200;9.242;2023-05-07T10:56:41;40.47;;;38.50;;
7255;SDS011;3669;49.200;9.242;2023-05-07T11:01:50;2.10;;;1.90;;
7255;SDS011;3669;49.200;9.242;2023-05-07T11:04:20;2.50;;;2.03;;
7255;SDS011;3669;49.200;9.242;2023-05-07T11:07:18;2.53;;;1.98;;
7255;SDS011;3669;49.200;9.242;2023-05-07T11:15:10;3.25;;;2.00;;
7255;SDS011;3669;49.200;9.242;2023-05-07T11:17:54;2.17;;;1.98;;
7255;SDS011;3669;49.200;9.242;2023-05-07T11:21:07;1.70;;;1.60;;
7255;SDS011;3669;49.200;9.242;2023-05-07T11:23:45;1.90;;;1.80;;
7255;SDS011;3669;49.200;9.242;2023-05-07T11:26:14;2.58;;;1.90;;
7255;SDS011;3669;49.200;9.242;2023-05-07T11:28:43;1.80;;;1.70;;
7255;SDS011;3669;49.200;9.242;2023-05-07T11:31:10;1.70;;;1.60;;
7255;SDS011;3669;49.200;9.242;2023-05-07T11:33:37;1.92;;;1.70;;
7255;SDS011;3669;49.200;9.242;2023-05-07T11:36:05;1.67;;;1.58;;
7255;SDS011;3669;49.200;9.242;2023-05-07T11:38:34;2.65;;;1.80;;
7255;SDS011;3669;49.200;9.242;2023-05-07T11:41:02;3.05;;;1.90;;
7255;SDS011;3669;49.200;9.242;2023-05-07T11:43:31;3.17;;;1.67;;
7255;SDS011;3669;49.200;9.242;2023-05-07T11:46:04;1.90;;;1.80;;
7255;SDS011;3669;49.200;9.242;2023-05-07T11:48:33;1.88;;;1.77;;
7255;SDS011;3669;49.200;9.242;2023-05-07T11:51:04;1.77;;;1.60;;
7255;SDS011;3669;49.200;9.242;2023-05-07T11:53:36;2.42;;;1.98;;
7255;SDS011;3669;49.200;9.242;2023-05-07T11:56:11;1.92;;;1.75;;
7255;SDS011;3669;49.200;9.242;2023-05-07T11:58:39;1.73;;;1.60;;
7255;SDS011;3669;49.200;9.242;2023-05-07T12:01:09;2.42;;;1.60;;
7255;SDS011;3669;49.200;9.242;2023-05-07T12:03:37;2.97;;;1.85;;
7255;SDS011;3669;49.200;9.242;2023-05-07T12:06:08;1.80;;;1.70;;
7255;SDS011;3669;49.200;9.242;2023-05-07T12:08:40;2.45;;;2.03;;
7255;SDS011;3669;49.200;9.242;2023-05-07T12:11:08;4.18;;;1.85;;
7255;SDS011;3669;49.200;9.242;2023-05-07T12:13:37;2.53;;;1.90;;
7255;SDS011;3669;49.200;9.242;2023-05-07T12:16:04;1.70;;;1.60;;
7255;SDS011;3669;49.200;9.242;2023-05-07T12:18:32;2.58;;;2.03;;
7255;SDS011;3669;49.200;9.242;2023-05-07T12:21:01;1.52;;;1.42;;
7255;SDS011;3669;49.200;9.242;2023-05-07T12:23:28;2.55;;;1.83;;
7255;SDS011;3669;49.200;9.242;2023-05-07T12:25:56;2.75;;;2.10;;
7255;SDS011;3669;49.200;9.242;2023-05-07T12:28:23;2.08;;;1.85;;
7255;SDS011;3669;49.200;9.242;2023-05-07T12:30:50;1.95;;;1.73;;
7255;SDS011;3669;49.200;9.242;2023-05-07T12:33:19;1.98;;;1.50;;
7255;SDS011;3669;49.200;9.242;2023-05-07T12:35:51;2.42;;;1.80;;
7255;SDS011;3669;49.200;9.242;2023-05-07T12:38:19;2.22;;;1.95;;
7255;SDS011;3669;49.200;9.242;2023-05-07T12:40:47;2.97;;;1.70;;
7255;SDS011;3669;49.200;9.242;2023-05-07T12:43:20;2.00;;;1.70;;
7255;SDS011;3669;49.200;9.242;2023-05-07T12:45:48;1.75;;;1.65;;
7255;SDS011;3669;49.200;9.242;2023-05-07T12:48:16;1.60;;;1.50;;
7255;SDS011;3669;49.200;9.242;2023-05-07T12:50:43;3.20;;;1.77;;
7255;SDS011;3669;49.200;9.242;2023-05-07T12:53:11;2.35;;;1.80;;
7255;SDS011;3669;49.200;9.242;2023-05-07T12:55:43;3.30;;;1.80;;
7255;SDS011;3669;49.200;9.242;2023-05-07T12:58:16;1.80;;;1.70;;
7255;SDS011;3669;49.200;9.242;2023-05-07T13:00:43;1.85;;;1.50;;
7255;SDS011;3669;49.200;9.242;2023-05-07T13:03:11;1.85;;;1.75;;
7255;SDS011;3669;49.200;9.242;2023-05-07T13:05:38;2.33;;;1.83;;
7255;SDS011;3669;49.200;9.242;2023-05-07T13:08:06;1.58;;;1.48;;
7255;SDS011;3669;49.200;9.242;2023-05-07T13:10:35;2.00;;;1.70;;
7255;SDS011;3669;49.200;9.242;2023-05-07T13:13:02;2.08;;;1.70;;
7255;SDS011;3669;49.200;9.242;2023-05-07T13:15:30;2.83;;;1.80;;
7255;SDS011;3669;49.200;9.242;2023-05-07T13:17:57;1.80;;;1.70;;
7255;SDS011;3669;49.200;9.242;2023-05-07T13:20:24;2.00;;;1.67;;
7255;SDS011;3669;49.200;9.242;2023-05-07T13:22:51;1.73;;;1.63;;
7255;SDS011;3669;49.200;9.242;2023-05-07T13:25:18;1.90;;;1.70;;
7255;SDS011;3669;49.200;9.242;2023-05-07T13:27:45;1.98;;;1.73;;
7255;SDS011;3669;49.200;9.242;2023-05-07T13:30:12;1.73;;;1.63;;
7255;SDS011;3669;49.200;9.242;2023-05-07T13:32:39;1.70;;;1.60;;
7255;SDS011;3669;49.200;9.242;2023-05-07T13:35:06;3.40;;;1.83;;
7255;SDS011;3669;49.200;9.242;2023-05-07T13:37:33;1.75;;;1.63;;
7255;SDS011;3669;49.200;9.242;2023-05-07T13:40:00;6.20;;;5.82;;
7255;SDS011;3669;49.200;9.242;2023-05-07T13:42:27;20.05;;;19.05;;
7255;SDS011;3669;49.200;9.242;2023-05-07T13:44:54;21.88;;;20.80;;
7255;SDS011;3669;49.200;9.242;2023-05-07T13:47:22;21.83;;;20.77;;
7255;SDS011;3669;49.200;9.242;2023-05-07T13:49:49;12.95;;;12.43;;
7255;SDS011;3669;49.200;9.242;2023-05-07T13:52:16;12.13;;;11.57;;
7255;SDS011;3669;49.200;9.242;2023-05-07T13:54:43;12.00;;;11.40;;
7255;SDS011;3669;49.200;9.242;2023-05-07T13:57:10;6.15;;;5.78;;
7255;SDS011;3669;49.200;9.242;2023-05-07T13:59:36;1.95;;;1.83;;
7255;SDS011;3669;49.200;9.242;2023-05-07T14:02:03;1.60;;;1.50;;
7255;SDS011;3669;49.200;9.242;2023-05-07T14:04:31;2.15;;;1.95;;
7255;SDS011;3669;49.200;9.242;2023-05-07T14:06:58;2.00;;;1.80;;
7255;SDS011;3669;49.200;9.242;2023-05-07T14:09:25;1.70;;;1.60;;
7255;SDS011;3669;49.200;9.242;2023-05-07T14:11:52;2.13;;;1.60;;
7255;SDS011;3669;49.200;9.242;2023-05-07T14:14:19;1.73;;;1.58;;
7255;SDS011;3669;49.200;9.242;2023-05-07T14:16:46;2.22;;;1.83;;
7255;SDS011;3669;49.200;9.242;2023-05-07T14:19:13;2.15;;;1.90;;
7255;SDS011;3669;49.200;9.242;2023-05-07T14:21:40;2.30;;;1.80;;
7255;SDS011;3669;49.200;9.242;2023-05-07T14:24:08;2.60;;;1.83;;
7255;SDS011;3669;49.200;9.242;2023-05-07T14:26:35;2.13;;;1.70;;
7255;SDS011;3669;49.200;9.242;2023-05-07T14:29:02;2.20;;;1.90;;
7255;SDS011;3669;49.200;9.242;2023-05-07T14:31:29;2.67;;;2.22;;
7255;SDS011;3669;49.200;9.242;2023-05-07T14:33:57;1.90;;;1.80;;
7255;SDS011;3669;49.200;9.242;2023-05-07T14:36:25;2.05;;;1.85;;
7255;SDS011;3669;49.200;9.242;2023-05-07T14:38:52;4.18;;;2.10;;
7255;SDS011;3669;49.200;9.242;2023-05-07T14:41:21;2.67;;;2.10;;
7255;SDS011;3669;49.200;9.242;2023-05-07T14:43:48;2.33;;;2.05;;
7255;SDS011;3669;49.200;9.242;2023-05-07T14:46:19;7.20;;;3.13;;
7255;SDS011;3669;49.200;9.242;2023-05-07T14:48:46;7.68;;;3.00;;
7255;SDS011;3669;49.200;9.242;2023-05-07T14:51:13;4.82;;;2.85;;
7255;SDS011;3669;49.200;9.242;2023-05-07T14:53:41;5.55;;;2.90;;
7255;SDS011;3669;49.200;9.242;2023-05-07T14:56:08;4.78;;;3.13;;
7255;SDS011;3669;49.200;9.242;2023-05-07T14:58:35;7.07;;;3.08;;
7255;SDS011;3669;49.200;9.242;2023-05-07T15:01:03;6.43;;;3.10;;
7255;SDS011;3669;49.200;9.242;2023-05-07T15:03:30;5.30;;;2.72;;
7255;SDS011;3669;49.200;9.242;2023-05-07T15:05:58;4.18;;;2.92;;
7255;SDS011;3669;49.200;9.242;2023-05-07T15:08:25;3.88;;;2.70;;
7255;SDS011;3669;49.200;9.242;2023-05-07T15:10:52;3.28;;;2.83;;
7255;SDS011;3669;49.200;9.242;2023-05-07T15:13:21;3.97;;;2.72;;
7255;SDS011;3669;49.200;9.242;2023-05-07T15:15:48;4.43;;;2.58;;
7255;SDS011;3669;49.200;9.242;2023-05-07T15:18:15;6.03;;;2.55;;
7255;SDS011;3669;49.200;9.242;2023-05-07T15:20:42;4.38;;;2.20;;
7255;SDS011;3669;49.200;9.242;2023-05-07T15:23:10;4.65;;;2.50;;
7255;SDS011;3669;49.200;9.242;2023-05-07T15:25:41;3.45;;;2.40;;
7255;SDS011;3669;49.200;9.242;2023-05-07T15:28:08;3.10;;;2.55;;
7255;SDS011;3669;49.200;9.242;2023-05-07T15:30:35;2.92;;;2.35;;